createdAt,value
2018-10-21T00:02:22.935Z,7.73
2018-10-21T00:04:51.355Z,8.87
2018-10-21T00:07:19.918Z,11.00
2018-10-21T00:09:49.322Z,7.33
2018-10-21T00:12:17.821Z,8.80
2018-10-21T00:14:46.354Z,12.80
2018-10-21T00:17:14.802Z,5.07
2018-10-21T00:19:43.617Z,8.03
2018-10-21T00:22:12.077Z,6.83
2018-10-21T00:24:40.730Z,11.97
2018-10-21T00:27:09.331Z,8.47
2018-10-21T00:29:37.861Z,9.47
2018-10-21T00:32:06.438Z,9.03
2018-10-21T00:34:34.918Z,13.03
2018-10-21T00:37:03.566Z,7.37
2018-10-21T00:39:32.058Z,5.37
2018-10-21T00:42:00.684Z,7.63
2018-10-21T00:44:29.380Z,8.70
2018-10-21T00:46:57.954Z,9.50
2018-10-21T00:49:26.553Z,10.37
2018-10-21T00:51:55.021Z,11.57
2018-10-21T00:54:23.844Z,7.80
2018-10-21T00:56:52.434Z,4.70
2018-10-21T00:59:21.344Z,4.67
2018-10-21T01:01:49.885Z,9.40
2018-10-21T01:04:18.462Z,9.73
2018-10-21T01:06:46.947Z,9.50
2018-10-21T01:09:15.688Z,9.37
2018-10-21T01:11:44.366Z,8.93
2018-10-21T01:14:12.866Z,7.83
2018-10-21T01:19:05.185Z,7.63
2018-10-21T01:21:33.785Z,9.93
2018-10-21T01:24:02.480Z,6.97
2018-10-21T01:26:31.082Z,12.20
2018-10-21T01:28:59.608Z,12.17
2018-10-21T01:31:28.154Z,10.43
2018-10-21T01:33:56.788Z,4.43
2018-10-21T01:36:25.644Z,8.37
2018-10-21T01:38:54.125Z,11.27
2018-10-21T01:41:22.902Z,8.67
2018-10-21T01:43:51.442Z,6.03
2018-10-21T01:46:19.990Z,8.63
2018-10-21T01:48:48.522Z,3.77
2018-10-21T01:51:17.051Z,10.43
2018-10-21T01:53:45.771Z,3.83
2018-10-21T01:56:14.402Z,6.50
2018-10-21T01:58:43.357Z,9.40
2018-10-21T02:01:11.942Z,12.50
2018-10-21T02:03:40.530Z,11.97
2018-10-21T02:06:08.995Z,7.73
2018-10-21T02:08:38.101Z,6.87
2018-10-21T02:11:06.874Z,7.73
2018-10-21T02:13:35.362Z,7.73
2018-10-21T02:16:04.021Z,9.37
2018-10-21T02:18:32.575Z,13.30
2018-10-21T02:21:01.171Z,7.87
2018-10-21T02:23:29.631Z,14.03
2018-10-21T02:25:58.222Z,6.13
2018-10-21T02:28:26.954Z,7.37
2018-10-21T02:30:55.446Z,6.47
2018-10-21T02:33:24.294Z,9.97
2018-10-21T02:35:52.809Z,8.53
2018-10-21T02:38:21.387Z,8.53
2018-10-21T02:41:30.894Z,6.73
2018-10-21T02:43:59.757Z,4.33
2018-10-21T02:46:28.489Z,9.77
2018-10-21T02:48:57.935Z,5.10
2018-10-21T02:51:26.409Z,3.63
2018-10-21T02:53:54.883Z,11.03
2018-10-21T02:56:23.556Z,10.33
2018-10-21T02:58:52.057Z,5.37
2018-10-21T03:01:20.885Z,3.60
2018-10-21T03:03:49.511Z,11.17
2018-10-21T03:06:18.318Z,9.07
2018-10-21T03:08:46.914Z,5.70
2018-10-21T03:11:15.533Z,4.20
2018-10-21T03:13:44.061Z,4.50
2018-10-21T03:16:12.646Z,5.23
2018-10-21T03:18:41.469Z,15.13
2018-10-21T03:21:10.071Z,4.43
2018-10-21T03:23:38.556Z,7.63
2018-10-21T03:26:07.066Z,9.43
2018-10-21T03:28:35.552Z,14.60
2018-10-21T03:31:04.181Z,10.77
2018-10-21T03:33:33.237Z,9.95
2018-10-21T03:36:01.797Z,8.03
2018-10-21T03:38:30.331Z,5.40
2018-10-21T03:40:59.191Z,9.87
2018-10-21T03:43:27.666Z,7.00
2018-10-21T03:45:56.343Z,3.77
2018-10-21T03:48:24.943Z,10.17
2018-10-21T03:50:53.409Z,7.50
2018-10-21T03:53:22.150Z,9.63
2018-10-21T03:55:50.630Z,3.53
2018-10-21T03:58:19.326Z,4.33
2018-10-21T04:00:49.665Z,8.43
2018-10-21T04:03:18.386Z,5.30
2018-10-21T04:05:46.947Z,5.83
2018-10-21T04:08:15.477Z,9.53
2018-10-21T04:10:43.994Z,3.20
2018-10-21T04:13:12.526Z,11.37
2018-10-21T04:15:41.429Z,9.60
2018-10-21T04:18:09.910Z,4.87
2018-10-21T04:20:38.541Z,5.70
2018-10-21T04:23:07.061Z,5.83
2018-10-21T04:25:37.018Z,9.07
2018-10-21T04:28:06.196Z,6.27
2018-10-21T04:30:35.986Z,6.93
2018-10-21T04:33:10.117Z,6.63
2018-10-21T04:35:38.862Z,9.50
2018-10-21T04:38:26.198Z,9.03
2018-10-21T04:40:54.755Z,9.97
2018-10-21T04:43:23.230Z,5.03
2018-10-21T04:45:51.745Z,6.07
2018-10-21T04:48:20.547Z,10.47
2018-10-21T04:50:49.034Z,6.23
2018-10-21T04:53:17.872Z,9.60
2018-10-21T04:55:46.530Z,10.10
2018-10-21T04:58:15.176Z,11.47
2018-10-21T05:00:45.944Z,5.13
2018-10-21T05:03:14.669Z,4.03
2018-10-21T05:05:43.190Z,8.70
2018-10-21T05:08:11.680Z,13.60
2018-10-21T05:10:40.564Z,9.33
2018-10-21T05:13:09.960Z,13.93
2018-10-21T05:15:39.789Z,9.73
2018-10-21T05:18:08.412Z,8.73
2018-10-21T05:20:37.341Z,9.73
2018-10-21T05:23:06.642Z,8.33
2018-10-21T05:25:35.366Z,9.97
2018-10-21T05:28:05.822Z,12.30
2018-10-21T05:30:34.558Z,9.93
2018-10-21T05:33:03.122Z,5.17
2018-10-21T05:35:32.131Z,5.33
2018-10-21T05:38:00.819Z,8.90
2018-10-21T05:40:29.375Z,11.40
2018-10-21T05:42:57.930Z,8.03
2018-10-21T05:45:26.454Z,7.00
2018-10-21T05:47:55.246Z,10.37
2018-10-21T05:50:23.727Z,6.40
2018-10-21T05:52:52.518Z,7.00
2018-10-21T05:55:22.082Z,5.10
2018-10-21T05:57:51.317Z,11.10
2018-10-21T06:00:20.664Z,7.90
2018-10-21T06:02:49.304Z,11.10
2018-10-21T06:05:41.302Z,5.63
2018-10-21T06:08:10.061Z,6.57
2018-10-21T06:10:38.893Z,7.57
2018-10-21T06:13:07.493Z,6.40
2018-10-21T06:15:36.122Z,8.53
2018-10-21T06:18:07.290Z,9.53
2018-10-21T06:20:37.871Z,7.03
2018-10-21T06:23:06.398Z,9.47
2018-10-21T06:25:34.890Z,7.47
2018-10-21T06:28:03.638Z,9.77
2018-10-21T06:30:32.136Z,11.37
2018-10-21T06:33:00.793Z,8.27
2018-10-21T06:35:29.300Z,10.40
2018-10-21T06:37:57.897Z,17.33
2018-10-21T06:40:26.426Z,10.07
2018-10-21T06:42:55.071Z,7.77
2018-10-21T06:45:23.910Z,11.43
2018-10-21T06:47:52.338Z,8.07
2018-10-21T06:50:21.588Z,9.80
2018-10-21T06:52:50.453Z,12.57
2018-10-21T06:55:19.268Z,14.47
2018-10-21T06:57:47.942Z,8.00
2018-10-21T07:00:17.225Z,18.57
2018-10-21T07:02:46.318Z,14.83
2018-10-21T07:06:35.399Z,9.07
2018-10-21T07:09:06.930Z,7.83
2018-10-21T07:11:35.776Z,4.37
2018-10-21T07:14:04.299Z,9.17
2018-10-21T07:16:33.122Z,9.37
2018-10-21T07:19:01.478Z,6.37
2018-10-21T07:21:29.958Z,15.17
2018-10-21T07:23:58.642Z,10.80
2018-10-21T07:26:27.199Z,10.67
2018-10-21T07:28:55.867Z,11.03
2018-10-21T07:31:24.448Z,8.97
2018-10-21T07:33:53.110Z,9.30
2018-10-21T07:36:21.775Z,8.53
2018-10-21T07:38:50.242Z,11.00
2018-10-21T07:41:18.854Z,7.33
2018-10-21T07:43:47.352Z,6.43
2018-10-21T07:46:16.190Z,15.77
2018-10-21T07:48:44.792Z,9.27
2018-10-21T07:51:13.351Z,17.53
2018-10-21T07:53:42.154Z,8.60
2018-10-21T07:56:10.958Z,10.17
2018-10-21T07:58:39.426Z,10.30
2018-10-21T08:01:08.082Z,8.27
2018-10-21T08:03:36.859Z,9.03
2018-10-21T08:06:30.058Z,6.10
2018-10-21T08:11:28.902Z,14.00
2018-10-21T08:13:57.584Z,11.70
2018-10-21T08:16:26.161Z,9.97
2018-10-21T08:18:54.719Z,12.13
2018-10-21T08:21:23.342Z,13.23
2018-10-21T08:23:51.782Z,15.00
2018-10-21T08:26:20.572Z,10.30
2018-10-21T08:28:49.099Z,12.30
2018-10-21T08:31:18.697Z,7.63
2018-10-21T08:33:47.332Z,8.37
2018-10-21T08:36:15.885Z,12.97
2018-10-21T08:38:44.487Z,16.00
2018-10-21T08:41:13.028Z,14.30
2018-10-21T08:43:42.119Z,5.50
2018-10-21T08:46:10.829Z,10.23
2018-10-21T08:48:39.586Z,8.07
2018-10-21T08:51:08.480Z,9.23
2018-10-21T08:53:37.242Z,11.00
2018-10-21T08:56:06.051Z,18.10
2018-10-21T08:58:34.670Z,11.60
2018-10-21T09:01:03.182Z,13.87
2018-10-21T09:03:31.726Z,12.13
2018-10-21T09:06:00.418Z,8.93
2018-10-21T09:08:29.009Z,9.43
2018-10-21T09:10:57.633Z,11.00
2018-10-21T09:13:26.180Z,7.77
2018-10-21T09:15:54.859Z,11.47
2018-10-21T09:18:23.410Z,11.57
2018-10-21T09:20:51.945Z,8.33
2018-10-21T09:23:21.166Z,11.20
2018-10-21T09:25:49.682Z,16.13
2018-10-21T09:28:18.998Z,13.37
2018-10-21T09:30:47.562Z,5.10
2018-10-21T09:33:16.210Z,7.30
2018-10-21T09:35:44.790Z,10.97
2018-10-21T09:38:13.358Z,13.43
2018-10-21T09:40:41.918Z,14.53
2018-10-21T09:43:10.516Z,9.53
2018-10-21T09:45:39.190Z,10.17
2018-10-21T09:48:07.746Z,8.40
2018-10-21T09:50:36.449Z,10.07
2018-10-21T09:53:04.998Z,13.80
2018-10-21T09:55:33.620Z,9.20
2018-10-21T09:58:02.266Z,9.50
2018-10-21T10:00:35.952Z,10.13
2018-10-21T10:03:06.014Z,10.57
2018-10-21T10:05:34.686Z,6.83
2018-10-21T10:08:03.257Z,10.80
2018-10-21T10:10:32.106Z,7.63
2018-10-21T10:13:00.662Z,8.40
2018-10-21T10:15:29.278Z,13.47
2018-10-21T10:17:57.810Z,14.13
2018-10-21T10:20:26.403Z,11.13
2018-10-21T10:22:55.269Z,12.87
2018-10-21T10:25:23.762Z,12.37
2018-10-21T10:27:52.453Z,9.07
2018-10-21T10:30:21.162Z,11.10
2018-10-21T10:32:49.826Z,9.97
2018-10-21T10:35:18.302Z,6.23
2018-10-21T10:37:46.913Z,11.60
2018-10-21T10:40:15.526Z,8.63
2018-10-21T10:42:44.040Z,9.00
2018-10-21T10:45:12.707Z,11.93
2018-10-21T10:47:41.262Z,10.50
2018-10-21T10:50:11.402Z,9.27
2018-10-21T10:52:40.350Z,9.50
2018-10-21T10:55:09.451Z,13.20
2018-10-21T10:57:37.914Z,10.07
2018-10-21T11:00:08.695Z,9.13
2018-10-21T11:02:37.153Z,10.50
2018-10-21T11:05:07.107Z,12.30
2018-10-21T11:07:35.626Z,7.10
2018-10-21T11:10:04.288Z,11.80
2018-10-21T11:12:32.910Z,12.23
2018-10-21T11:15:01.481Z,9.20
2018-10-21T11:17:30.434Z,10.10
2018-10-21T11:19:58.903Z,11.60
2018-10-21T11:22:27.697Z,8.17
2018-10-21T11:24:57.535Z,11.17
2018-10-21T11:27:26.352Z,9.23
2018-10-21T11:29:55.014Z,8.87
2018-10-21T11:32:23.638Z,10.17
2018-10-21T11:34:52.156Z,10.23
2018-10-21T11:37:20.977Z,8.57
2018-10-21T11:39:49.787Z,8.90
2018-10-21T11:42:18.420Z,11.57
2018-10-21T11:44:47.358Z,12.43
2018-10-21T11:47:15.970Z,18.10
2018-10-21T11:49:44.535Z,8.50
2018-10-21T11:52:13.157Z,14.03
2018-10-21T11:54:41.659Z,11.77
2018-10-21T11:57:10.826Z,9.33
2018-10-21T11:59:39.368Z,7.90
2018-10-21T12:02:08.350Z,8.30
2018-10-21T12:04:36.926Z,11.63
2018-10-21T12:07:05.621Z,7.83
2018-10-21T12:09:34.308Z,10.43
2018-10-21T12:12:03.015Z,10.53
2018-10-21T12:14:31.633Z,9.00
2018-10-21T12:17:00.141Z,8.50
2018-10-21T12:19:29.311Z,8.23
2018-10-21T12:21:57.907Z,6.47
2018-10-21T12:24:27.206Z,8.77
2018-10-21T12:26:55.885Z,10.30
2018-10-21T12:29:24.560Z,15.70
2018-10-21T12:31:53.194Z,16.53
2018-10-21T12:34:21.794Z,8.60
2018-10-21T12:36:50.318Z,9.13
2018-10-21T12:39:18.834Z,9.73
2018-10-21T12:41:47.728Z,8.07
2018-10-21T12:44:16.231Z,10.87
2018-10-21T12:46:45.042Z,13.30
2018-10-21T12:49:13.556Z,12.40
2018-10-21T12:51:42.050Z,9.00
2018-10-21T12:54:10.784Z,10.57
2018-10-21T12:56:39.214Z,13.00
2018-10-21T12:59:08.891Z,16.67
2018-10-21T13:01:37.506Z,9.37
2018-10-21T13:04:06.720Z,13.87
2018-10-21T13:06:35.353Z,9.90
2018-10-21T13:09:05.550Z,7.10
2018-10-21T13:11:34.059Z,9.20
2018-10-21T13:14:03.051Z,10.37
2018-10-21T13:16:31.633Z,8.47
2018-10-21T13:19:00.260Z,12.90
2018-10-21T13:21:28.772Z,7.03
2018-10-21T13:23:57.454Z,7.67
2018-10-21T13:26:25.980Z,10.60
2018-10-21T13:28:54.528Z,14.47
2018-10-21T13:31:24.135Z,11.67
2018-10-21T13:33:52.613Z,12.13
2018-10-21T13:36:21.554Z,8.13
2018-10-21T13:38:50.190Z,11.70
2018-10-21T13:41:18.957Z,10.87
2018-10-21T13:43:47.581Z,11.93
2018-10-21T13:46:16.234Z,12.20
2018-10-21T13:48:44.782Z,9.17
2018-10-21T13:51:13.433Z,13.60
2018-10-21T13:53:43.040Z,9.30
2018-10-21T13:56:11.929Z,9.00
2018-10-21T13:58:40.530Z,12.77
2018-10-21T14:01:09.049Z,5.63
2018-10-21T14:03:37.671Z,13.83
2018-10-21T14:06:06.186Z,14.03
2018-10-21T14:08:34.868Z,9.40
2018-10-21T14:11:03.429Z,12.40
2018-10-21T14:13:31.922Z,12.73
2018-10-21T14:16:02.435Z,9.60
2018-10-21T14:18:33.619Z,11.63
2018-10-21T14:21:02.621Z,8.53
2018-10-21T14:23:31.730Z,11.47
2018-10-21T14:26:00.965Z,6.10
2018-10-21T14:28:29.538Z,13.53
2018-10-21T14:30:58.311Z,8.47
2018-10-21T14:33:26.766Z,11.57
2018-10-21T14:35:55.513Z,10.27
2018-10-21T14:38:24.207Z,6.20
2018-10-21T14:40:52.797Z,14.07
2018-10-21T14:43:21.455Z,9.63
2018-10-21T14:45:50.155Z,11.37
2018-10-21T14:48:19.638Z,6.27
2018-10-21T14:50:48.132Z,13.93
2018-10-21T14:53:18.554Z,13.77
2018-10-21T14:55:47.657Z,9.67
2018-10-21T14:58:16.506Z,11.80
2018-10-21T15:00:45.180Z,11.93
2018-10-21T15:03:13.871Z,8.77
2018-10-21T15:05:42.512Z,7.13
2018-10-21T15:08:11.246Z,8.13
2018-10-21T15:10:39.757Z,10.37
2018-10-21T15:13:08.232Z,9.73
2018-10-21T15:15:37.058Z,7.13
2018-10-21T15:18:05.942Z,16.47
2018-10-21T15:20:35.343Z,9.93
2018-10-21T15:23:04.099Z,9.33
2018-10-21T15:25:33.290Z,10.07
2018-10-21T15:28:01.955Z,16.67
2018-10-21T15:30:30.782Z,9.50
2018-10-21T15:32:59.506Z,13.50
2018-10-21T15:35:28.405Z,12.27
2018-10-21T15:37:57.049Z,12.23
2018-10-21T15:40:26.407Z,10.77
2018-10-21T15:42:55.297Z,15.33
2018-10-21T15:45:24.658Z,13.30
2018-10-21T15:47:53.520Z,8.67
2018-10-21T15:50:22.197Z,12.40
2018-10-21T15:52:51.236Z,19.67
2018-10-21T15:55:19.726Z,10.47
2018-10-21T15:57:48.424Z,18.23
2018-10-21T16:00:17.088Z,12.37
2018-10-21T16:02:45.606Z,14.03
2018-10-21T16:05:15.253Z,21.53
2018-10-21T16:07:43.865Z,12.10
2018-10-21T16:10:12.828Z,11.87
2018-10-21T16:12:41.342Z,13.03
2018-10-21T16:15:12.710Z,16.83
2018-10-21T16:17:41.488Z,10.77
2018-10-21T16:20:10.772Z,14.77
2018-10-21T16:22:40.836Z,16.03
2018-10-21T16:25:12.051Z,22.97
2018-10-21T16:27:41.182Z,10.20
2018-10-21T16:30:13.010Z,14.47
2018-10-21T16:32:42.870Z,6.97
2018-10-21T16:35:11.885Z,10.00
2018-10-21T16:37:41.524Z,10.17
2018-10-21T16:40:12.744Z,16.33
2018-10-21T16:42:41.911Z,15.90
2018-10-21T16:45:11.382Z,12.60
2018-10-21T16:47:40.525Z,12.77
2018-10-21T16:50:12.349Z,16.00
2018-10-21T16:52:42.570Z,14.00
2018-10-21T16:55:11.926Z,18.52
2018-10-21T16:57:40.495Z,17.73
2018-10-21T17:00:11.963Z,8.67
2018-10-21T17:02:40.742Z,13.17
2018-10-21T17:05:09.665Z,14.50
2018-10-21T17:07:38.494Z,14.57
2018-10-21T17:10:08.291Z,11.60
2018-10-21T17:12:36.877Z,12.40
2018-10-21T17:15:06.227Z,7.63
2018-10-21T17:17:34.872Z,14.83
2018-10-21T17:20:03.593Z,11.63
2018-10-21T17:22:32.302Z,14.00
2018-10-21T17:25:00.853Z,9.60
2018-10-21T17:27:29.590Z,13.10
2018-10-21T17:29:58.287Z,18.30
2018-10-21T17:32:26.898Z,16.13
2018-10-21T17:34:55.366Z,12.83
2018-10-21T17:37:23.854Z,13.07
2018-10-21T17:39:52.720Z,11.13
2018-10-21T17:42:21.485Z,14.97
2018-10-21T17:44:50.178Z,11.83
2018-10-21T17:47:18.718Z,16.43
2018-10-21T17:49:47.341Z,10.63
2018-10-21T17:52:15.970Z,15.97
2018-10-21T17:54:44.511Z,14.53
2018-10-21T17:57:13.294Z,16.07
2018-10-21T17:59:41.878Z,18.47
2018-10-21T18:02:10.701Z,17.43
2018-10-21T18:04:39.369Z,12.47
2018-10-21T18:07:08.233Z,19.07
2018-10-21T18:09:36.840Z,13.63
2018-10-21T18:12:05.777Z,16.27
2018-10-21T18:14:34.302Z,20.13
2018-10-21T18:17:03.466Z,12.37
2018-10-21T18:19:33.018Z,14.90
2018-10-21T18:22:01.554Z,16.10
2018-10-21T18:24:30.959Z,13.33
2018-10-21T18:26:59.577Z,18.07
2018-10-21T18:29:28.647Z,17.57
2018-10-21T18:31:57.263Z,10.07
2018-10-21T18:34:26.343Z,11.07
2018-10-21T18:36:54.961Z,14.83
2018-10-21T18:39:23.642Z,14.53
2018-10-21T18:41:52.266Z,21.17
2018-10-21T18:44:21.116Z,13.60
2018-10-21T18:46:50.912Z,15.83
2018-10-21T18:49:19.438Z,14.40
2018-10-21T18:51:48.072Z,17.97
2018-10-21T18:54:17.964Z,17.83
2018-10-21T18:56:46.986Z,11.33
2018-10-21T18:59:15.510Z,17.67
2018-10-21T19:01:44.602Z,14.37
2018-10-21T19:04:13.952Z,13.73
2018-10-21T19:06:42.577Z,14.60
2018-10-21T19:09:12.662Z,16.07
2018-10-21T19:11:41.484Z,12.40
2018-10-21T19:14:10.586Z,19.80
2018-10-21T19:16:39.330Z,19.63
2018-10-21T19:19:08.231Z,15.10
2018-10-21T19:21:36.766Z,17.43
2018-10-21T19:24:05.490Z,19.50
2018-10-21T19:26:34.261Z,21.47
2018-10-21T19:29:03.620Z,18.87
2018-10-21T19:31:32.157Z,17.27
2018-10-21T19:34:01.024Z,23.77
2018-10-21T19:36:29.542Z,20.93
2018-10-21T19:38:58.278Z,18.67
2018-10-21T19:41:26.958Z,23.23
2018-10-21T19:43:55.622Z,23.13
2018-10-21T19:46:24.274Z,21.30
2018-10-21T19:48:54.110Z,17.90
2018-10-21T19:51:22.871Z,28.33
2018-10-21T19:53:51.375Z,22.33
2018-10-21T19:56:20.390Z,22.63
2018-10-21T19:58:48.970Z,16.47
2018-10-21T20:01:18.230Z,19.20
2018-10-21T20:03:46.782Z,17.82
2018-10-21T20:08:36.534Z,17.87
2018-10-21T20:11:05.584Z,20.07
2018-10-21T20:13:34.066Z,18.37
2018-10-21T20:16:02.826Z,18.17
2018-10-21T20:18:31.283Z,15.77
2018-10-21T20:21:00.114Z,16.43
2018-10-21T20:23:28.641Z,14.20
2018-10-21T20:25:57.345Z,13.27
2018-10-21T20:28:25.834Z,15.37
2018-10-21T20:30:54.467Z,14.40
2018-10-21T20:33:23.163Z,19.23
2018-10-21T20:35:51.750Z,18.47
2018-10-21T20:38:20.570Z,12.57
2018-10-21T20:40:49.103Z,14.53
2018-10-21T20:43:17.718Z,14.57
2018-10-21T20:45:46.218Z,15.30
2018-10-21T20:48:14.863Z,13.53
2018-10-21T20:50:43.424Z,16.53
2018-10-21T20:53:11.903Z,11.53
2018-10-21T20:55:40.622Z,9.53
2018-10-21T20:58:09.288Z,7.30
2018-10-21T21:00:37.997Z,5.60
2018-10-21T21:03:06.597Z,6.63
2018-10-21T21:05:35.076Z,2.33
2018-10-21T21:08:03.774Z,2.57
2018-10-21T21:10:32.318Z,2.27
2018-10-21T21:13:01.237Z,3.47
2018-10-21T21:15:29.825Z,3.17
2018-10-21T21:17:58.519Z,2.53
2018-10-21T21:20:27.070Z,2.53
2018-10-21T21:22:55.874Z,3.50
2018-10-21T21:25:24.470Z,2.77
2018-10-21T21:27:53.138Z,4.53
2018-10-21T21:30:21.934Z,4.87
2018-10-21T21:32:50.487Z,4.07
2018-10-21T21:35:19.278Z,4.80
2018-10-21T21:37:47.781Z,1.50
2018-10-21T21:40:16.569Z,1.63
2018-10-21T21:42:45.010Z,3.27
2018-10-21T21:45:13.610Z,3.00
2018-10-21T21:47:42.366Z,2.30
2018-10-21T21:50:10.874Z,2.37
2018-10-21T21:52:40.568Z,2.80
2018-10-21T21:55:09.102Z,0.40
2018-10-21T21:57:37.794Z,1.27
2018-10-21T22:00:09.274Z,3.17
2018-10-21T22:02:38.086Z,3.10
2018-10-21T22:05:07.942Z,6.73
2018-10-21T22:07:37.435Z,4.17
2018-10-21T22:10:07.146Z,6.10
2018-10-21T22:12:35.743Z,4.13
2018-10-21T22:15:04.365Z,8.77
2018-10-21T22:17:33.117Z,5.53
2018-10-21T22:20:01.735Z,5.00
2018-10-21T22:22:30.379Z,5.63
2018-10-21T22:24:59.005Z,2.17
2018-10-21T22:27:27.558Z,4.47
2018-10-21T22:29:56.443Z,6.30
2018-10-21T22:32:25.082Z,3.23
2018-10-21T22:34:53.814Z,5.63
2018-10-21T22:37:22.454Z,10.27
2018-10-21T22:39:51.094Z,5.67
2018-10-21T22:42:19.658Z,5.00
2018-10-21T22:44:48.130Z,7.03
2018-10-21T22:47:16.926Z,3.57
2018-10-21T22:49:45.393Z,5.77
2018-10-21T22:52:14.388Z,5.83
2018-10-21T22:54:42.983Z,7.77
2018-10-21T22:57:19.769Z,8.40
2018-10-21T22:59:50.336Z,6.80
2018-10-21T23:02:18.865Z,9.33
2018-10-21T23:04:47.983Z,7.07
2018-10-21T23:07:16.562Z,6.13
2018-10-21T23:09:45.169Z,8.97
2018-10-21T23:12:14.126Z,5.50
2018-10-21T23:32:01.858Z,5.47
2018-10-21T23:34:30.589Z,10.53
2018-10-21T23:36:59.082Z,5.50
2018-10-21T23:39:28.597Z,5.90
2018-10-21T23:41:57.523Z,3.07
2018-10-21T23:44:26.163Z,4.77
2018-10-21T23:46:54.797Z,2.87
2018-10-21T23:49:23.364Z,3.67
2018-10-21T23:51:52.151Z,3.13
2018-10-21T23:54:20.802Z,10.90
2018-10-21T23:56:49.459Z,4.23
2018-10-21T23:59:18.059Z,5.00
